CheckWX is a tool to help pilots better visualize weather data.  It is not intended as a substitute for an official pre-flight weather briefing.

06:16:44 UTC

KSNA METAR
John Wayne-Orange County Airport
Santa Ana, California, USA
Current

24 mins ago

KSNA 250553Z 23005KT 8SM OVC007 16/13 A2998 RMK AO2 SLP152 LAST T01560128 10200 20156 51012
Observed
Apr-25 @ 05:53 UTC
Wind
  • 230° at 5 KTS
Visibility
8 SM
Flight Rules
IFR
Cloud Levels
  • Overcast at 700' AGL
Temperature
16°C / 61°F
Dewpoint
13°C / 55°F
Humidity
83%
Altimeter
29.98" Hg
Pressure
1015.22 hPa
Previous

1 hour ago

KSNA 250453Z 23004KT 8SM OVC007 16/13 A2997 RMK AO2 SLP150 T01560128
Observed
Apr-25 @ 04:53 UTC
Wind
  • 230° at 4 KTS
Visibility
8 SM
Flight Rules
IFR
Cloud Levels
  • Overcast at 700' AGL
Temperature
16°C / 61°F
Dewpoint
13°C / 55°F
Humidity
83%
Altimeter
29.97" Hg
Pressure
1014.92 hPa
Previous

2 hours ago

KSNA 250353Z 22005KT 8SM BKN008 16/13 A2996 RMK AO2 SLP146 T01610133
Observed
Apr-25 @ 03:53 UTC
Wind
  • 220° at 5 KTS
Visibility
8 SM
Flight Rules
IFR
Cloud Levels
  • Broken at 800' AGL
Temperature
16°C / 61°F
Dewpoint
13°C / 55°F
Humidity
83%
Altimeter
29.96" Hg
Pressure
1014.52 hPa